Terminal Aerodrome Forecast
Issued by NWS El Paso, TX

Home | Current Version | Previous Version | Text Only | Print | Product List | Glossary On
Versions: 1 2 3 4 5 6 7 8 9 10 11 12 13 14 15
695
FTUS44 KEPZ 271159
TAFELP
TAF
KELP 271159Z 2712/2812 24007KT P6SM SCT070 BKN100
     FM272000 20008KT P6SM VCTS SCT060CB BKN100
      TEMPO 2723/2803 VRB25G40KT 2SM TSRA BKN040CB
     FM280600 10007KT P6SM SCT100=

USA.gov is the U.S. government's official web portal to all federal, state and local government web resources and services.